Time;durP1;ratioP1;P1;durP2;ratioP2;P2;SDS_P1;SDS_P2;PMS_P1;PMS_P2;Temp;Humidity;BMP_temperature;BMP_pressure;BME280_temperature;BME280_humidity;BME280_pressure;Samples;Min_cycle;Max_cycle;Signal;HPM_P1;HPM_P2
2021/08/07 00:01:11;;;;;;;0.40;0.20;;;16.80;99.90;;;;;;5033876;28;20192;-63
2021/08/07 00:03:37;;;;;;;0.67;0.67;;;16.80;99.90;;;;;;5034138;28;20607;-63
2021/08/07 00:06:02;;;;;;;0.40;0.10;;;16.70;99.90;;;;;;5034627;28;20182;-63
2021/08/07 00:08:28;;;;;;;0.40;0.20;;;16.70;99.90;;;;;;5033026;28;20181;-63
2021/08/07 00:10:54;;;;;;;0.40;0.20;;;16.70;99.90;;;;;;5034210;28;20352;-63
2021/08/07 00:13:19;;;;;;;0.40;0.20;;;16.70;99.90;;;;;;5033905;28;20205;-63
2021/08/07 00:15:45;;;;;;;0.40;0.20;;;16.80;99.90;;;;;;5033753;28;20181;-63
2021/08/07 00:18:11;;;;;;;0.40;0.20;;;16.80;99.90;;;;;;5033569;28;20174;-63
2021/08/07 00:20:36;;;;;;;1.70;1.60;;;16.90;99.90;;;;;;5033761;28;20788;-63
2021/08/07 00:23:02;;;;;;;0.40;0.30;;;16.90;99.90;;;;;;5033725;28;20260;-63
2021/08/07 00:25:27;;;;;;;0.40;0.20;;;16.80;99.90;;;;;;5032722;28;20587;-63
2021/08/07 00:27:53;;;;;;;0.40;0.20;;;16.80;99.90;;;;;;5033648;28;20182;-63
2021/08/07 00:30:18;;;;;;;0.40;0.20;;;16.80;99.90;;;;;;5033453;28;20181;-62
2021/08/07 00:32:44;;;;;;;0.40;0.20;;;16.80;99.90;;;;;;5033418;28;20591;-63
2021/08/07 00:35:10;;;;;;;0.40;0.20;;;16.90;99.90;;;;;;5033930;28;20184;-63
2021/08/07 00:37:35;;;;;;;0.40;0.20;;;16.90;99.90;;;;;;5033458;28;20262;-63
2021/08/07 00:40:02;;;;;;;0.40;0.20;;;16.80;99.90;;;;;;5033524;28;20169;-63
2021/08/07 00:42:27;;;;;;;0.93;0.38;;;16.80;99.90;;;;;;5033555;28;20185;-63
2021/08/07 00:44:53;;;;;;;0.50;0.40;;;16.70;99.90;;;;;;5033462;28;20235;-63
2021/08/07 00:47:19;;;;;;;0.40;0.20;;;16.70;99.90;;;;;;5032344;28;20611;-63
2021/08/07 00:49:45;;;;;;;0.40;0.20;;;16.70;99.90;;;;;;5033175;28;20185;-63
2021/08/07 00:52:11;;;;;;;0.40;0.10;;;16.70;99.90;;;;;;5033337;28;20173;-63
2021/08/07 00:54:39;;;;;;;0.40;0.20;;;16.70;99.90;;;;;;5033313;28;20327;-63
2021/08/07 00:57:05;;;;;;;0.40;0.20;;;16.70;99.90;;;;;;5033307;28;20427;-63
2021/08/07 00:59:30;;;;;;;0.40;0.20;;;16.70;99.90;;;;;;5033231;28;20424;-63
2021/08/07 01:02:09;;;;;;;0.40;0.20;;;16.60;99.90;;;;;;5033231;28;20208;-63
2021/08/07 01:04:40;;;;;;;0.40;0.20;;;16.70;99.90;;;;;;5033523;28;20286;-63
2021/08/07 01:07:13;;;;;;;0.40;0.20;;;16.70;99.90;;;;;;5033206;28;20185;-63
2021/08/07 01:09:48;;;;;;;0.40;0.20;;;16.60;99.90;;;;;;5033394;28;20231;-63
2021/08/07 01:12:39;;;;;;;0.40;0.17;;;16.60;99.90;;;;;;5033146;28;20268;-63
2021/08/07 01:15:08;;;;;;;0.40;0.20;;;16.60;99.90;;;;;;5033149;28;20204;-63
2021/08/07 01:17:36;;;;;;;0.52;0.52;;;16.70;99.90;;;;;;5033084;28;20181;-63
2021/08/07 01:20:11;;;;;;;0.47;0.40;;;16.70;99.90;;;;;;5036197;28;20205;-63
2021/08/07 01:22:58;;;;;;;0.40;0.20;;;16.70;99.90;;;;;;5036878;28;20192;-63
2021/08/07 01:25:33;;;;;;;0.40;0.20;;;16.80;99.90;;;;;;5036952;28;20194;-62
2021/08/07 01:28:01;;;;;;;0.63;0.40;;;16.70;99.90;;;;;;5036680;28;20177;-63
2021/08/07 01:30:27;;;;;;;0.40;0.30;;;16.70;99.90;;;;;;5035542;28;20182;-63
2021/08/07 01:32:54;;;;;;;0.40;0.10;;;16.70;99.90;;;;;;5036602;28;20937;-63
2021/08/07 01:35:20;;;;;;;0.40;0.23;;;16.80;99.90;;;;;;5036518;28;20428;-63
2021/08/07 01:37:46;;;;;;;0.40;0.20;;;16.80;99.90;;;;;;5036504;28;20559;-63
2021/08/07 01:40:12;;;;;;;0.40;0.20;;;16.80;99.90;;;;;;5036443;28;20661;-63
2021/08/07 01:42:38;;;;;;;0.40;0.20;;;16.70;99.90;;;;;;5037353;28;20599;-63
2021/08/07 01:45:04;;;;;;;0.40;0.20;;;16.70;99.90;;;;;;5036955;28;20438;-63
2021/08/07 01:47:56;;;;;;;0.40;0.20;;;16.70;99.90;;;;;;5038060;28;20185;-63
2021/08/07 01:50:41;;;;;;;0.40;0.20;;;16.70;99.90;;;;;;5037511;28;20256;-63
2021/08/07 01:53:13;;;;;;;0.40;0.20;;;16.80;99.90;;;;;;5036555;28;20589;-62
2021/08/07 01:56:14;;;;;;;0.40;0.20;;;16.70;99.90;;;;;;5036280;28;20186;-63
2021/08/07 01:58:44;;;;;;;0.40;0.17;;;16.70;99.90;;;;;;5017634;28;20682;-63
2021/08/07 02:01:10;;;;;;;0.50;0.50;;;16.80;99.90;;;;;;5036180;28;20416;-63
2021/08/07 02:03:38;;;;;;;0.40;0.20;;;16.70;99.90;;;;;;5036057;28;20494;-63
2021/08/07 02:06:04;;;;;;;0.40;0.20;;;16.70;99.90;;;;;;5035988;28;20235;-63
2021/08/07 02:08:31;;;;;;;0.40;0.20;;;16.70;99.90;;;;;;5035757;28;20194;-63
2021/08/07 02:10:58;;;;;;;0.40;0.20;;;16.60;99.90;;;;;;5035900;28;20431;-63
2021/08/07 02:13:24;;;;;;;0.40;0.20;;;16.70;99.90;;;;;;5035852;28;20205;-63
2021/08/07 02:15:51;;;;;;;0.40;0.20;;;16.70;99.90;;;;;;5035823;28;20661;-63
2021/08/07 02:18:21;;;;;;;0.40;0.20;;;16.60;99.90;;;;;;5035611;28;20224;-63
2021/08/07 02:20:47;;;;;;;0.40;0.20;;;16.70;99.90;;;;;;5034755;28;20436;-63
2021/08/07 02:23:15;;;;;;;0.40;0.20;;;16.60;99.90;;;;;;5035676;28;20800;-63
2021/08/07 02:25:42;;;;;;;0.40;0.20;;;16.60;99.90;;;;;;5035563;28;20575;-63
2021/08/07 02:28:10;;;;;;;0.40;0.17;;;16.70;99.90;;;;;;5035546;28;20966;-63
2021/08/07 02:30:36;;;;;;;0.40;0.20;;;16.80;99.90;;;;;;5034750;28;20455;-63
2021/08/07 02:33:02;;;;;;;0.40;0.20;;;16.80;99.90;;;;;;5035427;28;20464;-63
2021/08/07 02:35:28;;;;;;;0.40;0.20;;;16.90;99.90;;;;;;5035494;28;20421;-63
2021/08/07 02:37:54;;;;;;;0.40;0.20;;;16.90;99.90;;;;;;5035185;28;20183;-63
2021/08/07 02:40:20;;;;;;;0.40;0.20;;;16.90;99.90;;;;;;5035353;28;20621;-63
2021/08/07 02:42:46;;;;;;;0.40;0.10;;;16.90;99.90;;;;;;5035319;28;20657;-63
2021/08/07 02:45:12;;;;;;;0.40;0.20;;;16.80;99.90;;;;;;5035226;28;20205;-63
2021/08/07 02:47:38;;;;;;;0.40;0.20;;;16.80;99.90;;;;;;5035290;28;20182;-62
2021/08/07 02:50:05;;;;;;;0.40;0.20;;;16.70;99.90;;;;;;5035045;28;20487;-63
2021/08/07 02:52:32;;;;;;;0.40;0.20;;;16.80;99.90;;;;;;5035011;28;20654;-63
2021/08/07 02:54:58;;;;;;;0.40;0.20;;;16.90;99.90;;;;;;5035189;28;20190;-63
2021/08/07 02:57:24;;;;;;;0.40;0.20;;;17.10;99.90;;;;;;5035025;28;20517;-63
2021/08/07 02:59:50;;;;;;;0.40;0.20;;;17.10;99.90;;;;;;5034878;28;20893;-63
2021/08/07 03:02:16;;;;;;;0.40;0.20;;;17.20;99.90;;;;;;5034980;28;20428;-63
2021/08/07 03:04:41;;;;;;;0.40;0.20;;;17.10;99.90;;;;;;5034992;28;20640;-63
2021/08/07 03:07:07;;;;;;;0.40;0.20;;;17.10;99.90;;;;;;5034668;28;20170;-63
2021/08/07 03:09:32;;;;;;;0.40;0.20;;;17.10;99.90;;;;;;5034710;28;20323;-63
2021/08/07 03:11:58;;;;;;;0.40;0.13;;;17.10;99.90;;;;;;5034741;28;20649;-63
2021/08/07 03:14:23;;;;;;;0.40;0.20;;;17.10;99.90;;;;;;5034601;28;20213;-63
2021/08/07 03:16:49;;;;;;;0.40;0.20;;;17.10;99.90;;;;;;5034730;28;20180;-63
2021/08/07 03:19:14;;;;;;;0.40;0.33;;;16.90;99.90;;;;;;5034544;28;20177;-63
2021/08/07 03:21:40;;;;;;;0.40;0.20;;;16.80;99.90;;;;;;5034520;28;20664;-63
2021/08/07 03:24:05;;;;;;;0.60;0.57;;;16.80;99.90;;;;;;5034648;28;20258;-63
2021/08/07 03:26:31;;;;;;;0.40;0.20;;;16.50;99.90;;;;;;5034536;28;20485;-63
2021/08/07 03:28:56;;;;;;;0.40;0.20;;;16.50;99.90;;;;;;5034207;28;20181;-63
2021/08/07 03:31:22;;;;;;;0.50;0.40;;;16.60;99.90;;;;;;5034482;28;20212;-62
2021/08/07 03:33:48;;;;;;;0.40;0.20;;;16.60;99.90;;;;;;5034295;28;20205;-63
2021/08/07 03:36:14;;;;;;;0.40;0.10;;;16.60;99.90;;;;;;5034277;28;20173;-63
2021/08/07 03:38:39;;;;;;;0.40;0.20;;;16.50;99.90;;;;;;5034067;28;20181;-63
2021/08/07 03:41:05;;;;;;;0.40;0.20;;;16.50;99.90;;;;;;5034238;28;20169;-65
2021/08/07 03:43:30;;;;;;;0.50;0.50;;;16.50;99.90;;;;;;5034218;28;20618;-63
2021/08/07 03:45:56;;;;;;;0.40;0.20;;;16.60;99.90;;;;;;5034280;28;20197;-62
2021/08/07 03:48:21;;;;;;;0.40;0.10;;;16.60;99.90;;;;;;5033969;28;20186;-62
2021/08/07 03:50:47;;;;;;;0.40;0.20;;;16.50;99.90;;;;;;5034298;28;20212;-63
2021/08/07 03:53:13;;;;;;;0.40;0.20;;;16.60;99.90;;;;;;5034182;28;20284;-63
2021/08/07 03:55:39;;;;;;;0.40;0.20;;;16.60;99.90;;;;;;5032838;28;20638;-63
2021/08/07 03:58:04;;;;;;;0.40;0.20;;;16.70;99.90;;;;;;5033878;28;20260;-63
2021/08/07 04:00:32;;;;;;;0.67;0.67;;;16.60;99.90;;;;;;5033707;28;20877;-63
2021/08/07 04:02:57;;;;;;;0.70;0.60;;;16.70;99.90;;;;;;5034044;28;20555;-63
2021/08/07 04:05:23;;;;;;;1.73;1.63;;;16.60;99.90;;;;;;5033994;28;20891;-63
2021/08/07 04:07:49;;;;;;;0.40;0.20;;;16.70;99.90;;;;;;5032891;28;20268;-63
2021/08/07 04:10:16;;;;;;;0.67;0.60;;;16.80;99.90;;;;;;5033768;28;20976;-63
2021/08/07 04:12:42;;;;;;;0.40;0.20;;;16.70;99.90;;;;;;5033758;28;20920;-63
2021/08/07 04:15:09;;;;;;;0.50;0.50;;;16.70;99.90;;;;;;5033762;28;20216;-63
2021/08/07 04:17:36;;;;;;;0.40;0.20;;;16.70;99.90;;;;;;5033618;28;20178;-64
2021/08/07 04:20:08;;;;;;;0.45;0.35;;;16.60;99.90;;;;;;5033449;28;20511;-64
2021/08/07 04:22:34;;;;;;;0.63;0.63;;;16.60;99.90;;;;;;5033625;28;20231;-63
2021/08/07 04:25:00;;;;;;;0.60;0.47;;;16.50;99.90;;;;;;5033644;28;20539;-63
2021/08/07 04:27:25;;;;;;;0.40;0.20;;;16.40;99.90;;;;;;5033426;28;20220;-64
2021/08/07 04:29:51;;;;;;;0.40;0.20;;;16.40;99.90;;;;;;5033363;28;20213;-63
2021/08/07 04:32:17;;;;;;;0.40;0.20;;;16.40;99.90;;;;;;5033457;28;20189;-63
2021/08/07 04:34:44;;;;;;;0.40;0.20;;;16.50;99.90;;;;;;5033364;28;20188;-62
2021/08/07 04:37:10;;;;;;;0.40;0.20;;;16.60;99.90;;;;;;5033425;28;20173;-63
2021/08/07 04:39:36;;;;;;;0.40;0.20;;;16.80;99.90;;;;;;5033333;28;20177;-62
2021/08/07 04:42:02;;;;;;;0.40;0.20;;;17.00;99.90;;;;;;5034048;28;20513;-62
2021/08/07 04:44:28;;;;;;;0.40;0.20;;;17.60;99.90;;;;;;5033682;28;20440;-62
2021/08/07 04:46:53;;;;;;;0.40;0.20;;;18.50;99.90;;;;;;5033513;28;20426;-62
2021/08/07 04:49:19;;;;;;;0.40;0.20;;;19.70;99.90;;;;;;5033409;28;20625;-62
2021/08/07 04:51:44;;;;;;;0.40;0.20;;;20.60;1.00;;;;;;5033465;28;20188;-62
2021/08/07 04:54:10;;;;;;;0.40;0.20;;;20.50;1.00;;;;;;5035464;28;20244;-64
2021/08/07 04:56:39;;;;;;;0.40;0.10;;;19.90;1.00;;;;;;5037322;28;20227;-63
2021/08/07 04:59:05;;;;;;;0.50;0.40;;;19.50;1.00;;;;;;5037282;28;20430;-63
2021/08/07 05:01:31;;;;;;;0.40;0.20;;;19.20;1.00;;;;;;5037188;28;20428;-64
2021/08/07 05:03:57;;;;;;;0.40;0.17;;;19.10;18.20;;;;;;5037270;28;20180;-63
2021/08/07 05:06:22;;;;;;;0.43;0.23;;;19.50;45.20;;;;;;5037262;28;20424;-63
2021/08/07 05:08:48;;;;;;;0.90;0.70;;;20.50;1.00;;;;;;5037097;28;20593;-63
2021/08/07 05:11:13;;;;;;;0.40;0.20;;;20.00;1.00;;;;;;5037013;28;20178;-63
2021/08/07 05:13:39;;;;;;;0.40;0.20;;;19.30;1.00;;;;;;5037078;28;20212;-63
2021/08/07 05:16:04;;;;;;;0.40;0.20;;;18.60;58.60;;;;;;5037073;28;20178;-62
2021/08/07 05:18:30;;;;;;;0.40;0.20;;;18.60;99.90;;;;;;5036820;28;20193;-62
2021/08/07 05:20:56;;;;;;;0.40;0.20;;;18.50;99.90;;;;;;5036914;28;20190;-62
2021/08/07 05:23:21;;;;;;;1.47;1.37;;;18.50;99.90;;;;;;5037062;28;20607;-63
2021/08/07 05:25:47;;;;;;;0.40;0.20;;;18.70;99.90;;;;;;5036822;28;20178;-62
2021/08/07 05:28:13;;;;;;;0.40;0.33;;;18.60;99.90;;;;;;5036637;28;20181;-63
2021/08/07 05:30:38;;;;;;;0.77;0.77;;;18.40;99.90;;;;;;5036833;28;20184;-62
2021/08/07 05:33:04;;;;;;;1.07;0.97;;;18.30;99.90;;;;;;5036637;28;20215;-62
2021/08/07 05:35:29;;;;;;;0.40;0.20;;;18.10;99.90;;;;;;5036809;28;20510;-67
2021/08/07 05:37:55;;;;;;;1.23;1.13;;;18.20;99.90;;;;;;5035437;28;20268;-62
2021/08/07 05:40:21;;;;;;;0.40;0.20;;;18.20;99.90;;;;;;5036203;28;20197;-63
2021/08/07 05:42:47;;;;;;;0.50;0.30;;;18.30;99.90;;;;;;5036319;28;20235;-62
2021/08/07 05:45:14;;;;;;;0.40;0.30;;;18.40;99.90;;;;;;5036293;28;20177;-63
2021/08/07 05:47:40;;;;;;;0.50;0.20;;;18.60;99.90;;;;;;5036079;28;20479;-63
2021/08/07 05:50:06;;;;;;;0.40;0.10;;;19.00;99.90;;;;;;5035893;28;20451;-63
2021/08/07 05:52:32;;;;;;;0.40;0.20;;;18.90;90.90;;;;;;5036046;28;20470;-63
2021/08/07 05:54:57;;;;;;;0.40;0.20;;;19.20;99.90;;;;;;5036175;28;20781;-64
2021/08/07 05:57:23;;;;;;;1.60;1.50;;;19.30;69.50;;;;;;5036362;28;20170;-64
2021/08/07 05:59:48;;;;;;;1.33;0.93;;;19.40;12.90;;;;;;5036259;28;20611;-63
2021/08/07 06:02:14;;;;;;;0.40;0.20;;;19.30;1.00;;;;;;5035203;28;20182;-63
2021/08/07 06:04:40;;;;;;;0.40;0.20;;;19.50;13.00;;;;;;5035326;28;20285;-63
2021/08/07 06:07:05;;;;;;;0.40;0.20;;;19.40;20.90;;;;;;5035595;28;20990;-62
2021/08/07 06:09:31;;;;;;;0.53;0.53;;;19.50;1.00;;;;;;5035891;28;20213;-62
2021/08/07 06:11:56;;;;;;;0.70;0.40;;;19.30;13.90;;;;;;5035281;28;20177;-62
2021/08/07 06:14:22;;;;;;;0.40;0.20;;;19.30;13.40;;;;;;5035974;28;20216;-62
2021/08/07 06:16:48;;;;;;;0.40;0.20;;;19.40;41.40;;;;;;5035855;28;20169;-62
2021/08/07 06:19:13;;;;;;;0.57;0.53;;;19.50;40.20;;;;;;5035645;28;20202;-62
2021/08/07 06:21:39;;;;;;;2.53;1.37;;;19.60;1.00;;;;;;5035782;28;20178;-62
2021/08/07 06:24:05;;;;;;;0.40;0.20;;;19.30;1.00;;;;;;5034653;28;20623;-62
2021/08/07 06:26:30;;;;;;;0.70;0.40;;;19.10;85.70;;;;;;5035730;28;20657;-62
2021/08/07 06:28:56;;;;;;;0.40;0.30;;;19.10;99.90;;;;;;5035370;28;20611;-62
2021/08/07 06:31:21;;;;;;;5.70;1.27;;;19.20;99.10;;;;;;5035511;28;20192;-62
2021/08/07 06:33:47;;;;;;;0.40;0.20;;;19.20;99.80;;;;;;5035372;28;20221;-62
2021/08/07 06:36:13;;;;;;;0.40;0.20;;;19.40;90.30;;;;;;5035607;28;20185;-62
2021/08/07 06:38:38;;;;;;;0.40;0.20;;;19.60;67.80;;;;;;5035560;28;20173;-62
2021/08/07 06:41:04;;;;;;;0.40;0.17;;;19.80;1.00;;;;;;5035584;28;20646;-62
2021/08/07 06:43:30;;;;;;;0.40;0.17;;;19.90;1.00;;;;;;5034355;28;20204;-62
2021/08/07 06:45:56;;;;;;;0.50;0.40;;;20.00;1.00;;;;;;5035335;28;20208;-62
2021/08/07 06:48:22;;;;;;;0.40;0.20;;;19.90;1.00;;;;;;5035013;28;20440;-62
2021/08/07 06:50:48;;;;;;;0.40;0.20;;;19.70;1.00;;;;;;5035173;28;20428;-62
2021/08/07 06:53:13;;;;;;;0.40;0.20;;;19.80;1.00;;;;;;5034945;28;20472;-62
2021/08/07 06:55:39;;;;;;;0.40;0.20;;;19.70;9.10;;;;;;5034988;28;20185;-62
2021/08/07 06:58:05;;;;;;;0.40;0.20;;;20.00;1.00;;;;;;5034992;28;20170;-62
2021/08/07 07:00:31;;;;;;;0.40;0.20;;;20.30;1.00;;;;;;5034910;28;20416;-62
2021/08/07 07:02:56;;;;;;;0.40;0.20;;;20.50;1.00;;;;;;5034456;28;20196;-65
2021/08/07 07:05:22;;;;;;;0.50;0.30;;;20.50;1.00;;;;;;5035020;28;20299;-62
2021/08/07 07:07:48;;;;;;;1.30;1.23;;;20.60;1.00;;;;;;5034842;28;20180;-65
2021/08/07 07:10:14;;;;;;;0.60;0.40;;;20.50;1.00;;;;;;5034735;28;20428;-67
2021/08/07 07:12:41;;;;;;;0.40;0.20;;;20.60;1.00;;;;;;5034624;28;20209;-67
2021/08/07 07:15:07;;;;;;;1.40;1.00;;;20.90;1.00;;;;;;5031706;28;20455;-67
2021/08/07 07:17:33;;;;;;;0.40;0.20;;;21.30;1.00;;;;;;5033938;28;20465;-66
2021/08/07 07:20:00;;;;;;;0.40;0.20;;;21.10;1.00;;;;;;5034394;28;20498;-65
2021/08/07 07:22:27;;;;;;;0.40;0.13;;;20.90;1.00;;;;;;5032786;28;20789;-68
2021/08/07 07:24:53;;;;;;;0.70;0.53;;;20.90;1.00;;;;;;5033614;28;20493;-68
2021/08/07 07:27:19;;;;;;;0.80;0.50;;;20.80;1.00;;;;;;5034426;28;20431;-69
2021/08/07 07:29:45;;;;;;;0.50;0.30;;;20.60;1.00;;;;;;5033640;28;20971;-68
2021/08/07 07:32:10;;;;;;;0.40;0.20;;;20.60;1.00;;;;;;5033032;28;20428;-68
2021/08/07 07:34:37;;;;;;;0.40;0.20;;;20.60;1.00;;;;;;5034217;28;20283;-68
2021/08/07 07:37:03;;;;;;;0.50;0.27;;;20.70;1.00;;;;;;5034082;28;20177;-68
2021/08/07 07:39:29;;;;;;;0.40;0.20;;;20.60;1.00;;;;;;5033911;28;20459;-68
2021/08/07 07:41:54;;;;;;;0.40;0.20;;;20.60;1.00;;;;;;5034107;28;20467;-69
2021/08/07 07:44:20;;;;;;;0.40;0.20;;;20.80;1.00;;;;;;5033965;28;20258;-68
2021/08/07 07:46:45;;;;;;;0.40;0.10;;;20.80;1.00;;;;;;5030242;28;20196;-68
2021/08/07 07:49:11;;;;;;;0.60;0.47;;;21.00;1.00;;;;;;5032814;28;20192;-69
2021/08/07 07:51:37;;;;;;;0.40;0.17;;;21.20;1.00;;;;;;5032525;28;20198;-68
2021/08/07 07:54:02;;;;;;;1.13;0.60;;;21.00;1.00;;;;;;5033777;28;20669;-68
2021/08/07 07:56:28;;;;;;;0.40;0.20;;;20.70;1.00;;;;;;5027370;28;20215;-67
2021/08/07 07:58:53;;;;;;;0.40;0.20;;;20.80;1.00;;;;;;5033787;28;20216;-66
2021/08/07 08:01:19;;;;;;;0.40;0.10;;;21.00;1.00;;;;;;5033474;28;20599;-69
2021/08/07 08:03:45;;;;;;;0.97;0.97;;;21.20;1.00;;;;;;5033751;28;20190;-68
2021/08/07 08:06:10;;;;;;;0.40;0.20;;;21.50;99.90;;;;;;5033279;28;20185;-72
2021/08/07 08:08:36;;;;;;;0.40;0.20;;;21.40;99.90;;;;;;5033600;28;20523;-68
2021/08/07 08:11:01;;;;;;;0.60;0.40;;;21.60;99.90;;;;;;5034260;28;20185;-68
2021/08/07 08:13:27;;;;;;;0.40;0.20;;;21.30;99.90;;;;;;5034421;28;20237;-69
2021/08/07 08:15:53;;;;;;;0.40;0.20;;;21.30;99.90;;;;;;5035453;28;20177;-68
2021/08/07 08:18:20;;;;;;;0.40;0.20;;;22.00;99.90;;;;;;5035951;28;20192;-69
2021/08/07 08:20:46;;;;;;;0.40;0.20;;;22.20;1.00;;;;;;5033002;28;20629;-70
2021/08/07 08:23:12;;;;;;;0.40;0.20;;;21.90;1.00;;;;;;5032547;28;20428;-66
2021/08/07 08:25:37;;;;;;;0.40;0.20;;;22.10;1.00;;;;;;5033388;28;20213;-66
2021/08/07 08:28:05;;;;;;;0.40;0.20;;;22.40;99.90;;;;;;5032710;28;20185;-68
2021/08/07 08:30:32;;;;;;;0.40;0.20;;;22.40;99.90;;;;;;5034078;28;20185;-68
2021/08/07 08:32:57;;;;;;;0.40;0.20;;;22.50;1.00;;;;;;5034285;28;20521;-68
2021/08/07 08:35:23;;;;;;;0.40;0.20;;;22.70;1.00;;;;;;5033853;28;20424;-69
2021/08/07 08:37:49;;;;;;;0.40;0.20;;;22.80;1.00;;;;;;5033354;28;20178;-69
2021/08/07 08:40:15;;;;;;;0.40;0.20;;;23.30;1.00;;;;;;5034533;28;20207;-68
2021/08/07 08:42:41;;;;;;;0.50;0.37;;;23.30;99.90;;;;;;5033999;28;20435;-68
2021/08/07 08:45:08;;;;;;;0.40;0.20;;;23.30;99.90;;;;;;5035861;28;20470;-67
2021/08/07 08:47:36;;;;;;;0.40;0.20;;;23.10;89.60;;;;;;5034577;28;20428;-68
2021/08/07 08:50:02;;;;;;;0.50;0.20;;;23.40;99.90;;;;;;5035753;28;20428;-67
2021/08/07 08:52:31;;;;;;;0.40;0.20;;;23.80;99.90;;;;;;5038573;28;20442;-67
2021/08/07 08:54:58;;;;;;;0.40;0.20;;;24.40;1.00;;;;;;5052928;28;20976;-63
2021/08/07 08:57:24;;;;;;;0.40;0.10;;;24.70;99.90;;;;;;5053239;28;20419;-63
2021/08/07 08:59:50;;;;;;;0.53;0.33;;;24.40;78.50;;;;;;5054043;28;20501;-63
2021/08/07 09:02:16;;;;;;;0.40;0.20;;;23.80;99.90;;;;;;5055101;28;20173;-63
2021/08/07 09:04:42;;;;;;;0.40;0.13;;;23.20;39.20;;;;;;5056274;28;20825;-63
2021/08/07 09:07:08;;;;;;;0.40;0.10;;;23.50;1.00;;;;;;5057130;28;20425;-63
2021/08/07 09:09:38;;;;;;;0.40;0.20;;;23.80;1.00;;;;;;5055745;28;20181;-63
2021/08/07 09:12:05;;;;;;;0.50;0.43;;;24.40;1.00;;;;;;5053853;28;20200;-63
2021/08/07 09:14:35;;;;;;;0.40;0.20;;;24.70;1.00;;;;;;5054325;28;20899;-63
2021/08/07 09:17:04;;;;;;;0.40;0.20;;;25.10;1.00;;;;;;5055143;28;20474;-63
2021/08/07 09:19:39;;;;;;;0.40;0.20;;;24.90;1.00;;;;;;5052353;28;20908;-63
2021/08/07 09:22:13;;;;;;;0.40;0.20;;;25.20;1.00;;;;;;5052758;28;20418;-63
2021/08/07 09:25:02;;;;;;;0.40;0.20;;;25.60;1.00;;;;;;5052104;28;20514;-63
2021/08/07 09:27:38;;;;;;;0.40;0.20;;;26.10;99.90;;;;;;5052832;28;20519;-63
2021/08/07 09:30:25;;;;;;;0.40;0.17;;;26.60;99.90;;;;;;5052638;28;20942;-64
2021/08/07 09:33:04;;;;;;;0.40;0.20;;;26.00;99.90;;;;;;5051930;28;20462;-65
2021/08/07 09:35:32;;;;;;;0.40;0.20;;;26.20;99.90;;;;;;5053072;28;20419;-64
2021/08/07 09:38:22;;;;;;;0.40;0.20;;;26.10;99.90;;;;;;5052972;28;20420;-63
2021/08/07 09:40:57;;;;;;;1.13;1.03;;;26.00;99.90;;;;;;5055686;28;20896;-63
2021/08/07 09:43:39;;;;;;;0.40;0.20;;;25.40;99.90;;;;;;5056347;28;20427;-63
2021/08/07 09:46:08;;;;;;;0.40;0.20;;;24.80;1.00;;;;;;5056317;28;20884;-64
2021/08/07 09:48:43;;;;;;;0.40;0.10;;;24.10;99.90;;;;;;5055767;28;20434;-64
2021/08/07 09:51:21;;;;;;;0.50;0.30;;;24.20;99.90;;;;;;5056129;28;20438;-64
2021/08/07 09:54:09;;;;;;;0.40;0.20;;;24.20;99.90;;;;;;5056187;28;20462;-64
2021/08/07 09:56:54;;;;;;;0.40;0.10;;;23.90;1.00;;;;;;5055931;28;20450;-64
2021/08/07 09:59:23;;;;;;;0.40;0.20;;;24.30;1.00;;;;;;5056169;28;20411;-64
2021/08/07 10:01:50;;;;;;;0.40;0.20;;;24.90;99.90;;;;;;5055947;28;20751;-64
2021/08/07 10:04:19;;;;;;;0.40;0.20;;;24.80;39.70;;;;;;5055906;28;20433;-64
2021/08/07 10:06:46;;;;;;;0.40;0.20;;;25.20;1.00;;;;;;5055304;28;20746;-64
2021/08/07 10:09:12;;;;;;;0.40;0.10;;;25.40;1.00;;;;;;5055782;28;20460;-68
2021/08/07 10:11:38;;;;;;;0.50;0.23;;;25.60;99.90;;;;;;5042499;28;20797;-71
2021/08/07 10:14:04;;;;;;;0.40;0.20;;;25.60;99.90;;;;;;5034801;28;20543;-70
2021/08/07 10:16:32;;;;;;;0.77;0.70;;;25.60;1.00;;;;;;5036295;28;20496;-71
2021/08/07 10:18:59;;;;;;;0.40;0.20;;;25.40;99.90;;;;;;5035238;28;20702;-70
2021/08/07 10:21:28;;;;;;;0.40;0.20;;;25.50;99.90;;;;;;5036102;28;20711;-72
2021/08/07 10:23:55;;;;;;;0.40;0.20;;;25.40;1.00;;;;;;5036017;28;20439;-73
2021/08/07 10:26:24;;;;;;;0.43;0.23;;;25.40;1.00;;;;;;5035651;28;20432;-73
2021/08/07 10:28:56;;;;;;;0.40;0.20;;;24.80;1.00;;;;;;5034357;28;20455;-72
2021/08/07 10:31:24;;;;;;;0.40;0.20;;;24.80;1.00;;;;;;5035954;28;20489;-70
2021/08/07 10:33:56;;;;;;;0.43;0.20;;;25.00;1.00;;;;;;5036082;28;20469;-72
2021/08/07 10:36:23;;;;;;;0.40;0.20;;;24.90;1.00;;;;;;5035831;28;20428;-70
2021/08/07 10:38:51;;;;;;;0.50;0.30;;;24.80;18.30;;;;;;5035097;28;20431;-70
2021/08/07 10:41:17;;;;;;;0.40;0.20;;;24.80;1.00;;;;;;5035279;28;20432;-70
2021/08/07 10:43:43;;;;;;;0.53;0.47;;;24.40;1.00;;;;;;5035675;28;20444;-64
2021/08/07 10:46:10;;;;;;;0.47;0.20;;;24.30;49.60;;;;;;5035216;28;20459;-66
2021/08/07 10:48:41;;;;;;;0.80;0.30;;;24.00;1.00;;;;;;5035825;28;20424;-65
2021/08/07 10:51:31;;;;;;;0.50;0.37;;;24.00;99.90;;;;;;5035170;28;20428;-63
2021/08/07 10:54:00;;;;;;;0.57;0.40;;;23.80;99.90;;;;;;5035651;28;20456;-63
2021/08/07 10:56:28;;;;;;;0.70;0.60;;;23.90;99.90;;;;;;5034784;28;20458;-65
2021/08/07 10:58:56;;;;;;;0.40;0.20;;;24.20;90.70;;;;;;5033720;28;20511;-64
2021/08/07 11:01:21;;;;;;;1.40;1.30;;;24.80;99.90;;;;;;5034878;28;20734;-64
2021/08/07 11:04:00;;;;;;;0.40;0.20;;;24.90;99.90;;;;;;5034825;28;20439;-63
2021/08/07 11:06:44;;;;;;;0.60;0.30;;;25.00;1.00;;;;;;5034942;28;20260;-68
2021/08/07 11:09:39;;;;;;;0.50;0.20;;;25.10;99.90;;;;;;5034745;28;20458;-62
2021/08/07 11:12:11;;;;;;;0.50;0.20;;;25.60;99.90;;;;;;5034509;28;20432;-62
2021/08/07 11:14:40;;;;;;;2.20;0.70;;;25.90;99.90;;;;;;5033386;28;20968;-62
2021/08/07 11:17:06;;;;;;;0.50;0.20;;;26.20;53.30;;;;;;5034401;28;20424;-63
2021/08/07 11:19:50;;;;;;;0.50;0.20;;;26.30;1.00;;;;;;5034280;28;20424;-63
2021/08/07 11:22:42;;;;;;;0.60;0.30;;;26.40;80.80;;;;;;5034797;28;20212;-64
2021/08/07 11:25:19;;;;;;;0.50;0.20;;;26.30;30.00;;;;;;5033393;28;20459;-64
2021/08/07 11:27:45;;;;;;;0.50;0.20;;;26.50;1.00;;;;;;5034157;28;20503;-67
2021/08/07 11:30:23;;;;;;;0.70;0.50;;;26.20;1.00;;;;;;5035266;28;20482;-65
2021/08/07 11:32:59;;;;;;;1.03;0.60;;;25.80;50.60;;;;;;5033436;28;20212;-65
2021/08/07 11:35:38;;;;;;;1.00;0.40;;;25.30;99.90;;;;;;5034309;28;20873;-65
2021/08/07 11:38:06;;;;;;;0.50;0.20;;;25.20;99.90;;;;;;5034159;28;20876;-65
2021/08/07 11:40:47;;;;;;;0.43;0.10;;;25.50;99.90;;;;;;5034583;28;20443;-65
2021/08/07 11:43:21;;;;;;;0.50;0.10;;;25.50;99.90;;;;;;5034345;28;20762;-67
2021/08/07 11:45:59;;;;;;;0.50;0.30;;;25.60;99.90;;;;;;5034636;28;20427;-65
2021/08/07 11:48:32;;;;;;;0.60;0.20;;;25.50;99.90;;;;;;5034895;28;20428;-65
2021/08/07 11:51:02;;;;;;;0.50;0.30;;;25.60;1.00;;;;;;5035267;28;20427;-66
2021/08/07 11:53:28;;;;;;;0.63;0.47;;;25.70;99.90;;;;;;5033991;28;20999;-63
2021/08/07 11:56:03;;;;;;;1.20;1.07;;;25.20;99.90;;;;;;5035072;28;20448;-66
2021/08/07 11:58:30;;;;;;;1.63;0.70;;;24.80;99.90;;;;;;5035036;28;20840;-65
2021/08/07 12:01:01;;;;;;;0.50;0.20;;;24.70;99.90;;;;;;5034892;28;20425;-66
2021/08/07 12:03:37;;;;;;;0.50;0.10;;;24.90;99.90;;;;;;5033483;28;20467;-66
2021/08/07 12:06:03;;;;;;;0.60;0.40;;;25.10;99.90;;;;;;5034179;28;20510;-66
2021/08/07 12:08:31;;;;;;;0.73;0.57;;;25.20;99.90;;;;;;5034091;28;20432;-66
2021/08/07 12:11:00;;;;;;;0.50;0.10;;;25.00;99.90;;;;;;5033914;28;20424;-67
2021/08/07 12:13:40;;;;;;;0.50;0.20;;;25.10;99.90;;;;;;5034486;28;20460;-63
2021/08/07 12:16:12;;;;;;;0.50;0.20;;;25.50;99.90;;;;;;5033686;28;20779;-67
2021/08/07 12:18:58;;;;;;;0.93;0.63;;;25.70;64.60;;;;;;5032406;28;20459;-66
2021/08/07 12:21:30;;;;;;;1.57;1.40;;;25.60;99.90;;;;;;5033792;28;20504;-65
2021/08/07 12:24:08;;;;;;;0.50;0.30;;;25.20;99.90;;;;;;5033635;28;20478;-64
2021/08/07 12:26:42;;;;;;;4.10;0.67;;;25.20;99.90;;;;;;5033584;28;20427;-63
2021/08/07 12:29:23;;;;;;;0.50;0.17;;;25.20;99.90;;;;;;5034148;28;20428;-63
2021/08/07 12:31:54;;;;;;;1.03;0.60;;;25.70;80.20;;;;;;5032788;28;20932;-62
2021/08/07 12:34:27;;;;;;;0.83;0.40;;;25.30;99.90;;;;;;5032321;28;20475;-63
2021/08/07 12:37:00;;;;;;;1.63;1.00;;;25.00;99.90;;;;;;5033256;28;20470;-62
2021/08/07 12:39:27;;;;;;;0.50;0.20;;;25.00;99.90;;;;;;5033393;28;20868;-64
2021/08/07 12:41:53;;;;;;;0.50;0.13;;;24.90;99.90;;;;;;5033363;28;20420;-65
2021/08/07 12:44:27;;;;;;;0.60;0.30;;;25.60;77.60;;;;;;5033385;28;20888;-64
2021/08/07 12:46:56;;;;;;;0.50;0.20;;;25.30;99.90;;;;;;5032906;28;20435;-65
2021/08/07 12:49:44;;;;;;;0.50;0.10;;;25.00;99.90;;;;;;5033196;28;20769;-63
2021/08/07 12:52:18;;;;;;;0.50;0.10;;;25.40;99.90;;;;;;5033327;28;20428;-63
2021/08/07 12:55:05;;;;;;;0.50;0.10;;;25.60;99.90;;;;;;5033222;28;20482;-64
2021/08/07 12:57:31;;;;;;;0.50;0.30;;;25.50;99.90;;;;;;5033492;28;20427;-64